Hauptseite
METAR-TAF:

METAR-TAF

Flughäfen :

Bohrplattform

Ekofisk, Norwegen

Breite: 56-33N, Länge: 003-15E, Höhe: 3 m

Beobachtung

Neuester Wetterbericht von vor 19 Minuten, um 01:50 UTC
Wind 27 kt aus Nordost
Temperatur 18°C
Luftfeuchtigkeit 32%
Luftdruck 1026 hPa
Sichtweite 10 km oder mehr
keine Wolken unter 1500 m und keine Kumulonimbus oder Gewitterwolken

METAR: ENLE 260150Z 04027KT CAVOK 18/01 Q1026 W10/S3

Zeit: 04:09 (02:09 UTC)

Prognose

Neuester Wetterbericht von vor 12 Stunden und 9 Minuten, um 14:00 UTC
Gültige Prognose vom 24 um 15 UTC bis 24 um 24 UTC
Wind 22 kt aus Ost/Nordost
Sichtweite 10 km oder mehr
keine Wolken unter 1500 m und keine Kumulonimbus oder Gewitterwolken
Übergehend zu
vom 24 um 16 UTC bis 24 um 19 UTC
Wind 12 kt aus Ost/Nordost

TAF: ENLE 241400Z 2415/2424 06022KT CAVOK BECMG 2416/2419 07012KT

Wetterbeobachtungen und Prognosen von mehr als 4000 Flughäfen (METAR und TAF Bericht).

Die verfügbaren Stationen werden durch gelbe und rote Markierungen auf der Karte dargestellt.

Führen Sie die Maus auf sie, um den Namen der Station zu sehen.

Darauf klicken, um die Beobachtung von Wetterbeobachtungen und Prognosen zu sehen.

Um die Karte zu ändern : klicken Sie auf den grünen Tasten mit einem schwarzen Kreuz Zum Vergrößern, auf den grünen Button mit einem Gedankenstrich zu verkleinern, oder auf die grünen Pfeile für benachbarte Karten.


METAR-TAF: